createdAt,value
2023-04-18T00:00:11.089Z,1.65
2023-04-18T00:03:31.273Z,2.25
2023-04-18T00:06:38.683Z,1.35
2023-04-18T00:09:49.507Z,1.73
2023-04-18T00:13:13.285Z,1.77
2023-04-18T00:23:04.986Z,1.17
2023-04-18T00:31:08.028Z,1.70
2023-04-18T00:36:11.877Z,1.60
2023-04-18T00:42:05.687Z,1.77
2023-04-18T00:45:31.919Z,1.30
2023-04-18T00:48:04.008Z,1.60
2023-04-18T00:50:34.448Z,1.40
2023-04-18T00:53:05.843Z,1.57
2023-04-18T01:06:21.380Z,2.80
2023-04-18T01:11:36.945Z,2.15
2023-04-18T01:25:13.081Z,2.17
2023-04-18T01:37:54.872Z,2.03
2023-04-18T01:43:35.380Z,1.90
2023-04-18T02:07:04.614Z,1.40
2023-04-18T02:32:59.626Z,1.80
2023-04-18T03:09:43.833Z,1.80
2023-04-18T03:21:05.491Z,1.77
2023-04-18T03:24:44.796Z,1.70
2023-04-18T03:27:53.498Z,1.75
2023-04-18T03:37:46.996Z,2.00
2023-04-18T03:42:35.808Z,1.77
2023-04-18T03:47:06.915Z,1.63
2023-04-18T03:49:42.672Z,2.17
2023-04-18T03:53:06.149Z,1.58
2023-04-18T03:55:37.832Z,1.75
2023-04-18T03:58:06.191Z,1.40
2023-04-18T04:00:34.893Z,1.48
2023-04-18T04:03:09.910Z,1.83
2023-04-18T04:05:41.054Z,1.80
2023-04-18T04:08:09.489Z,1.70
2023-04-18T04:10:38.078Z,1.65
2023-04-18T04:13:06.928Z,1.70
2023-04-18T04:15:39.741Z,2.25
2023-04-18T04:18:08.168Z,2.75
2023-04-18T04:20:39.379Z,2.00
2023-04-18T04:23:07.999Z,2.05
2023-04-18T04:25:37.424Z,2.67
2023-04-18T04:28:09.133Z,2.15
2023-04-18T04:30:39.137Z,2.00
2023-04-18T04:33:08.371Z,2.00
2023-04-18T04:38:48.193Z,2.63
2023-04-18T04:41:16.505Z,2.05
2023-04-18T04:48:07.609Z,2.08
2023-04-18T04:51:08.128Z,2.17
2023-04-18T04:53:39.680Z,2.08
2023-04-18T04:56:08.159Z,2.85
2023-04-18T04:58:39.397Z,2.50
2023-04-18T05:01:13.471Z,2.58
2023-04-18T05:07:07.872Z,2.63
2023-04-18T05:10:08.245Z,2.70
2023-04-18T05:13:11.516Z,2.63
2023-04-18T05:15:44.198Z,2.28
2023-04-18T05:18:12.719Z,2.40
2023-04-18T05:21:09.101Z,2.67
2023-04-18T05:30:06.493Z,2.20
2023-04-18T05:32:39.780Z,2.58
2023-04-18T05:35:09.299Z,2.58
2023-04-18T05:37:37.625Z,2.92
2023-04-18T05:40:08.210Z,2.10
2023-04-18T05:42:39.159Z,2.33
2023-04-18T05:45:11.174Z,2.40
2023-04-18T05:54:09.207Z,1.15
2023-04-18T05:56:41.268Z,1.20
2023-04-18T05:59:12.435Z,1.17
2023-04-18T06:01:44.308Z,1.60
2023-04-18T06:04:12.999Z,2.00
2023-04-18T06:07:07.803Z,1.88
2023-04-18T06:09:36.346Z,2.10
2023-04-18T06:12:07.969Z,0.88
2023-04-18T06:14:42.433Z,1.30
2023-04-18T06:17:13.405Z,1.10
2023-04-18T06:19:42.217Z,0.50
2023-04-18T06:22:11.122Z,0.77
2023-04-18T06:24:39.616Z,0.57
2023-04-18T06:27:17.528Z,0.50
2023-04-18T06:30:09.961Z,0.75
2023-04-18T06:32:38.449Z,0.70
2023-04-18T06:35:09.855Z,0.77
2023-04-18T06:40:39.238Z,0.50
2023-04-18T06:43:12.848Z,0.50
2023-04-18T06:48:23.398Z,0.63
2023-04-18T06:54:09.901Z,0.50
2023-04-18T06:56:38.873Z,0.60
2023-04-18T06:59:08.777Z,0.60
2023-04-18T07:02:09.107Z,0.65
2023-04-18T07:04:37.538Z,0.60
2023-04-18T07:07:09.006Z,0.60
2023-04-18T07:12:06.207Z,0.60
2023-04-18T07:14:34.891Z,0.80
2023-04-18T07:17:10.707Z,0.73
2023-04-18T07:19:39.003Z,0.80
2023-04-18T07:22:08.737Z,0.93
2023-04-18T07:24:37.615Z,0.90
2023-04-18T07:27:27.956Z,0.90
2023-04-18T07:32:40.672Z,1.80
2023-04-18T07:35:12.378Z,0.90
2023-04-18T07:37:40.998Z,0.85
2023-04-18T07:40:09.857Z,1.08
2023-04-18T07:42:38.946Z,1.17
2023-04-18T07:45:08.020Z,0.90
2023-04-18T07:47:39.734Z,1.20
2023-04-18T07:52:41.415Z,0.93
2023-04-18T07:55:10.204Z,0.98
2023-04-18T07:57:39.633Z,1.25
2023-04-18T08:00:11.448Z,0.98
2023-04-18T08:02:43.032Z,1.10
2023-04-18T08:05:11.715Z,1.20
2023-04-18T08:07:40.183Z,1.00
2023-04-18T08:10:12.432Z,1.85
2023-04-18T08:12:40.812Z,1.13
2023-04-18T08:15:09.848Z,1.15
2023-04-18T08:17:43.513Z,1.08
2023-04-18T08:20:13.918Z,1.20
2023-04-18T08:22:57.776Z,1.02
2023-04-18T08:25:41.401Z,1.20
2023-04-18T08:28:09.770Z,0.80
2023-04-18T08:30:39.616Z,0.95
2023-04-18T08:33:10.715Z,1.20
2023-04-18T08:35:39.101Z,1.30
2023-04-18T08:38:10.280Z,1.08
2023-04-18T08:40:41.456Z,1.20
2023-04-18T08:43:10.447Z,1.08
2023-04-18T08:45:45.978Z,1.33
2023-04-18T08:48:16.067Z,1.20
2023-04-18T08:50:45.875Z,1.52
2023-04-18T08:53:14.386Z,1.25
2023-04-18T08:55:43.049Z,1.60
2023-04-18T08:58:13.206Z,1.55
2023-04-18T09:00:41.571Z,1.50
2023-04-18T09:03:39.896Z,1.42
2023-04-18T09:10:38.534Z,1.35
2023-04-18T09:13:07.136Z,1.33
2023-04-18T09:15:41.760Z,1.60
2023-04-18T09:18:11.930Z,1.55
2023-04-18T09:20:42.944Z,1.35
2023-04-18T09:23:39.446Z,1.30
2023-04-18T09:26:10.938Z,1.58
2023-04-18T09:31:13.808Z,1.70
2023-04-18T09:33:53.680Z,1.95
2023-04-18T09:42:52.537Z,1.70
2023-04-18T09:45:53.461Z,1.40
2023-04-18T09:48:41.688Z,1.90
2023-04-18T09:51:12.611Z,1.80
2023-04-18T09:53:45.347Z,2.22
2023-04-18T09:56:40.308Z,1.80
2023-04-18T09:59:10.973Z,1.92
2023-04-18T10:04:10.606Z,2.40
2023-04-18T10:06:42.703Z,1.80
2023-04-18T10:09:11.939Z,1.83
2023-04-18T10:11:41.358Z,1.52
2023-04-18T10:14:14.220Z,2.13
2023-04-18T10:16:47.478Z,1.90
2023-04-18T10:19:42.900Z,1.85
2023-04-18T10:22:13.455Z,1.88
2023-04-18T10:24:54.206Z,2.30
2023-04-18T10:27:50.104Z,2.37
2023-04-18T10:30:39.924Z,2.10
2023-04-18T10:33:30.989Z,1.80
2023-04-18T10:36:38.906Z,2.10
2023-04-18T10:41:50.953Z,1.85
2023-04-18T10:44:41.062Z,2.40
2023-04-18T10:47:09.927Z,2.00
2023-04-18T10:49:41.398Z,2.13
2023-04-18T10:54:48.208Z,2.10
2023-04-18T10:57:16.657Z,2.13
2023-04-18T10:59:49.310Z,2.70
2023-04-18T11:02:40.008Z,2.47
2023-04-18T11:05:11.644Z,2.60
2023-04-18T11:07:49.379Z,3.10
2023-04-18T11:10:20.976Z,2.40
2023-04-18T11:12:49.556Z,3.20
2023-04-18T11:15:40.763Z,2.40
2023-04-18T11:18:11.043Z,2.55
2023-04-18T11:20:41.797Z,3.13
2023-04-18T11:23:39.702Z,1.83
2023-04-18T11:26:09.804Z,2.10
2023-04-18T11:28:43.140Z,3.10
2023-04-18T11:31:11.485Z,2.90
2023-04-18T11:33:39.784Z,2.70
2023-04-18T11:36:09.257Z,3.15
2023-04-18T11:39:09.741Z,2.53
2023-04-18T11:41:42.511Z,2.05
2023-04-18T11:44:10.869Z,2.03
2023-04-18T11:46:41.188Z,1.75
2023-04-18T11:49:09.599Z,1.85
2023-04-18T11:51:42.904Z,1.90
2023-04-18T11:54:42.279Z,2.85
2023-04-18T12:02:16.205Z,2.83
2023-04-18T12:05:12.714Z,3.08
2023-04-18T12:07:42.497Z,2.70
2023-04-18T12:10:39.098Z,2.70
2023-04-18T12:13:10.529Z,3.22
2023-04-18T12:16:24.226Z,3.33
2023-04-18T12:28:16.520Z,2.67
2023-04-18T12:31:09.553Z,3.20
2023-04-18T12:34:10.422Z,3.33
2023-04-18T12:43:09.083Z,2.80
2023-04-18T12:45:40.024Z,4.10
2023-04-18T12:48:11.515Z,2.60
2023-04-18T12:50:42.457Z,3.05
2023-04-18T12:53:10.911Z,3.55
2023-04-18T12:55:48.212Z,2.97
2023-04-18T12:58:19.461Z,3.30
2023-04-18T13:01:10.153Z,3.50
2023-04-18T13:04:13.080Z,3.28
2023-04-18T13:06:55.820Z,3.30
2023-04-18T13:13:08.501Z,2.90
2023-04-18T13:15:51.924Z,2.97
2023-04-18T13:18:38.008Z,3.22
2023-04-18T13:21:13.767Z,3.75
2023-04-18T13:24:09.504Z,4.03
2023-04-18T13:27:10.948Z,2.95
2023-04-18T13:29:43.665Z,3.00
2023-04-18T13:32:12.150Z,3.25
2023-04-18T13:35:09.898Z,3.40
2023-04-18T13:37:54.184Z,3.20
2023-04-18T13:40:45.628Z,3.20
2023-04-18T13:43:16.303Z,3.53
2023-04-18T13:45:57.888Z,2.90
2023-04-18T13:51:12.411Z,3.72
2023-04-18T13:57:37.998Z,3.55
2023-04-18T14:00:10.576Z,3.30
2023-04-18T14:02:39.552Z,3.53
2023-04-18T14:05:10.408Z,3.97
2023-04-18T14:07:39.289Z,3.85
2023-04-18T14:10:08.288Z,3.63
2023-04-18T14:13:10.571Z,3.65
2023-04-18T14:16:10.269Z,3.50
2023-04-18T14:18:39.757Z,3.17
2023-04-18T14:21:11.127Z,4.90
2023-04-18T14:23:39.652Z,4.07
2023-04-18T14:28:35.504Z,3.85
2023-04-18T14:31:06.474Z,4.00
2023-04-18T14:33:36.458Z,3.50
2023-04-18T14:36:04.910Z,3.75
2023-04-18T14:38:33.726Z,3.53
2023-04-18T14:41:08.530Z,3.70
2023-04-18T14:43:37.520Z,3.40
2023-04-18T14:46:13.094Z,3.67
2023-04-18T14:48:41.955Z,3.30
2023-04-18T14:51:10.475Z,4.50
2023-04-18T14:53:38.861Z,3.63
2023-04-18T14:56:10.553Z,2.95
2023-04-18T14:58:38.830Z,2.80
2023-04-18T15:01:08.681Z,3.08
2023-04-18T15:03:40.439Z,2.50
2023-04-18T15:06:09.239Z,2.75
2023-04-18T15:08:41.526Z,2.60
2023-04-18T15:11:10.551Z,2.90
2023-04-18T15:13:38.916Z,2.25
2023-04-18T15:16:07.848Z,2.90
2023-04-18T15:18:36.230Z,2.78
2023-04-18T15:21:04.608Z,2.58
2023-04-18T15:23:33.014Z,2.45
2023-04-18T15:26:01.468Z,2.58
2023-04-18T15:28:29.864Z,2.40
2023-04-18T15:30:58.276Z,2.50
2023-04-18T15:33:26.994Z,2.33
2023-04-18T15:35:57.038Z,2.25
2023-04-18T15:38:25.310Z,2.15
2023-04-18T15:40:53.694Z,1.90
2023-04-18T15:43:21.976Z,2.13
2023-04-18T15:45:50.406Z,2.55
2023-04-18T15:48:18.850Z,1.95
2023-04-18T15:50:52.139Z,3.50
2023-04-18T15:53:21.363Z,2.45
2023-04-18T15:55:49.913Z,2.55
2023-04-18T15:58:18.227Z,2.50
2023-04-18T16:00:47.199Z,2.47
2023-04-18T16:03:15.675Z,2.63
2023-04-18T16:05:44.188Z,2.30
2023-04-18T16:08:12.942Z,2.35
2023-04-18T16:10:41.277Z,2.22
2023-04-18T16:13:09.645Z,2.60
2023-04-18T16:15:42.781Z,1.88
2023-04-18T16:18:11.393Z,2.28
2023-04-18T16:20:40.153Z,1.88
2023-04-18T16:23:08.449Z,2.60
2023-04-18T16:25:36.964Z,2.22
2023-04-18T16:28:05.428Z,2.15
2023-04-18T16:30:33.772Z,1.90
2023-04-18T16:33:02.328Z,2.00
2023-04-18T16:35:30.863Z,1.90
2023-04-18T16:37:59.131Z,2.20
2023-04-18T16:40:31.324Z,2.25
2023-04-18T16:43:00.252Z,2.05
2023-04-18T16:45:28.851Z,2.00
2023-04-18T16:47:58.681Z,2.83
2023-04-18T16:50:27.663Z,2.00
2023-04-18T16:52:55.933Z,1.98
2023-04-18T16:55:24.789Z,2.10
2023-04-18T16:57:53.043Z,2.53
2023-04-18T17:00:22.046Z,2.22
2023-04-18T17:02:50.450Z,1.80
2023-04-18T17:05:19.545Z,1.58
2023-04-18T17:07:50.617Z,1.88
2023-04-18T17:10:19.782Z,1.85
2023-04-18T17:12:50.064Z,1.83
2023-04-18T17:15:23.172Z,2.22
2023-04-18T17:17:51.696Z,1.67
2023-04-18T17:20:20.606Z,1.50
2023-04-18T17:22:49.089Z,1.73
2023-04-18T17:25:17.558Z,1.52
2023-04-18T17:27:45.887Z,1.38
2023-04-18T17:30:14.692Z,1.70
2023-04-18T17:32:46.679Z,1.30
2023-04-18T17:35:15.637Z,1.38
2023-04-18T17:37:44.292Z,1.40
2023-04-18T17:40:13.987Z,1.25
2023-04-18T17:42:42.475Z,1.67
2023-04-18T17:45:11.746Z,1.48
2023-04-18T17:47:41.625Z,1.42
2023-04-18T17:50:10.757Z,1.20
2023-04-18T17:52:39.119Z,1.33
2023-04-18T17:55:07.901Z,1.00
2023-04-18T17:57:36.832Z,1.40
2023-04-18T18:00:11.079Z,1.58
2023-04-18T18:02:39.574Z,1.48
2023-04-18T18:05:08.672Z,1.25
2023-04-18T18:07:38.301Z,1.27
2023-04-18T18:10:07.867Z,1.40
2023-04-18T18:12:37.404Z,1.25
2023-04-18T18:15:06.372Z,1.23
2023-04-18T18:17:34.762Z,1.23
2023-04-18T18:20:03.124Z,1.13
2023-04-18T18:22:31.958Z,1.23
2023-04-18T18:25:00.253Z,1.45
2023-04-18T18:27:28.466Z,1.13
2023-04-18T18:29:56.764Z,1.30
2023-04-18T18:32:25.667Z,1.55
2023-04-18T18:34:54.093Z,1.52
2023-04-18T18:37:24.150Z,1.27
2023-04-18T18:39:53.143Z,1.25
2023-04-18T18:42:21.677Z,1.48
2023-04-18T18:44:50.486Z,1.45
2023-04-18T18:47:21.997Z,1.30
2023-04-18T18:49:50.367Z,1.20
2023-04-18T18:52:19.558Z,1.23
2023-04-18T18:54:47.958Z,0.82
2023-04-18T18:57:16.294Z,1.25
2023-04-18T18:59:44.532Z,1.10
2023-04-18T19:02:12.899Z,1.25
2023-04-18T19:04:41.374Z,1.00
2023-04-18T19:07:09.711Z,0.90
2023-04-18T19:09:38.146Z,1.00
2023-04-18T19:12:07.717Z,1.02
2023-04-18T19:14:36.401Z,1.00
2023-04-18T19:17:05.783Z,0.90
2023-04-18T19:19:34.548Z,1.05
2023-04-18T19:22:02.811Z,1.40
2023-04-18T19:24:34.179Z,1.02
2023-04-18T19:27:03.709Z,1.52
2023-04-18T19:29:32.957Z,1.45
2023-04-18T19:32:01.732Z,1.85
2023-04-18T19:34:30.066Z,1.88
2023-04-18T19:36:58.824Z,1.65
2023-04-18T19:39:27.172Z,1.70
2023-04-18T19:41:55.400Z,1.48
2023-04-18T19:44:23.937Z,1.60
2023-04-18T19:46:52.442Z,1.70
2023-04-18T19:49:20.855Z,1.20
2023-04-18T19:51:49.923Z,1.20
2023-04-18T19:54:20.320Z,1.23
2023-04-18T19:56:50.168Z,1.30
2023-04-18T19:59:18.644Z,1.42
2023-04-18T20:01:47.064Z,1.60
2023-04-18T20:04:15.441Z,2.05
2023-04-18T20:06:43.899Z,1.65
2023-04-18T20:09:17.441Z,1.50
2023-04-18T20:11:47.317Z,1.83
2023-04-18T20:14:15.605Z,2.08
2023-04-18T20:16:46.658Z,1.60
2023-04-18T20:21:44.667Z,1.20
2023-04-18T20:24:14.473Z,1.33
2023-04-18T20:26:42.826Z,2.15
2023-04-18T20:29:11.187Z,1.42
2023-04-18T20:31:43.022Z,2.10
2023-04-18T20:34:11.455Z,1.70
2023-04-18T20:36:43.247Z,2.15
2023-04-18T20:39:13.672Z,1.50
2023-04-18T20:41:48.121Z,1.30
2023-04-18T20:44:17.214Z,1.83
2023-04-18T21:04:53.463Z,1.40
2023-04-18T21:08:07.138Z,1.20
2023-04-18T21:10:38.739Z,2.05
2023-04-18T21:16:00.272Z,1.52
2023-04-18T21:19:06.494Z,1.77
2023-04-18T21:22:05.733Z,1.38
2023-04-18T21:25:07.183Z,1.45
2023-04-18T21:30:07.555Z,1.23
2023-04-18T21:33:07.032Z,1.30
2023-04-18T21:39:04.254Z,1.25
2023-04-18T21:41:35.660Z,1.95
2023-04-18T21:44:07.520Z,1.30
2023-04-18T21:46:36.123Z,1.50
2023-04-18T21:49:08.872Z,1.10
2023-04-18T21:51:37.905Z,1.40
2023-04-18T21:54:08.619Z,1.17
2023-04-18T21:59:18.787Z,1.40
2023-04-18T22:10:06.895Z,1.52
2023-04-18T22:12:38.635Z,1.13
2023-04-18T22:15:34.970Z,1.40
2023-04-18T22:25:35.400Z,1.40
2023-04-18T22:37:39.877Z,1.15
2023-04-18T22:40:41.515Z,1.40
2023-04-18T22:44:33.422Z,1.40
2023-04-18T22:52:40.227Z,1.40
2023-04-18T23:09:09.953Z,1.40
2023-04-18T23:23:11.194Z,1.58
2023-04-18T23:29:33.832Z,1.80
2023-04-18T23:32:07.618Z,1.42
2023-04-18T23:34:41.414Z,1.90
2023-04-18T23:37:13.266Z,1.48
2023-04-18T23:43:03.376Z,1.40
2023-04-18T23:46:19.054Z,1.30
2023-04-18T23:49:08.678Z,1.70
2023-04-18T23:51:51.433Z,1.30
2023-04-18T23:54:37.306Z,1.63
2023-04-18T23:57:08.478Z,1.45
2023-04-18T23:59:39.969Z,1.65
